sensor_id;sensor_type;location;lat;lon;timestamp;temperature;humidity
26990;DHT22;14537;47.788;11.858;2022-07-25T00:01:38;17.30;99.90
26990;DHT22;14537;47.788;11.858;2022-07-25T00:04:04;17.30;99.90
26990;DHT22;14537;47.788;11.858;2022-07-25T00:06:30;17.20;99.90
26990;DHT22;14537;47.788;11.858;2022-07-25T00:08:55;17.20;99.90
26990;DHT22;14537;47.788;11.858;2022-07-25T00:11:21;17.20;99.90
26990;DHT22;14537;47.788;11.858;2022-07-25T00:13:46;17.10;99.90
26990;DHT22;14537;47.788;11.858;2022-07-25T00:16:12;17.20;99.90
26990;DHT22;14537;47.788;11.858;2022-07-25T00:18:37;17.10;99.90
26990;DHT22;14537;47.788;11.858;2022-07-25T00:21:03;17.10;99.90
26990;DHT22;14537;47.788;11.858;2022-07-25T00:23:29;17.10;99.90
26990;DHT22;14537;47.788;11.858;2022-07-25T00:25:54;17.00;99.90
26990;DHT22;14537;47.788;11.858;2022-07-25T00:28:20;16.90;99.90
26990;DHT22;14537;47.788;11.858;2022-07-25T00:30:45;16.80;99.90
26990;DHT22;14537;47.788;11.858;2022-07-25T00:33:12;16.90;99.90
26990;DHT22;14537;47.788;11.858;2022-07-25T00:35:37;16.80;99.90
26990;DHT22;14537;47.788;11.858;2022-07-25T00:38:03;16.80;99.90
26990;DHT22;14537;47.788;11.858;2022-07-25T00:40:29;16.80;99.90
26990;DHT22;14537;47.788;11.858;2022-07-25T00:42:54;16.60;99.90
26990;DHT22;14537;47.788;11.858;2022-07-25T00:45:20;16.60;99.90
26990;DHT22;14537;47.788;11.858;2022-07-25T00:47:45;16.70;99.90
26990;DHT22;14537;47.788;11.858;2022-07-25T00:50:11;16.70;99.90
26990;DHT22;14537;47.788;11.858;2022-07-25T00:52:36;16.70;99.90
26990;DHT22;14537;47.788;11.858;2022-07-25T00:55:02;16.70;99.90
26990;DHT22;14537;47.788;11.858;2022-07-25T00:57:27;16.80;99.90
26990;DHT22;14537;47.788;11.858;2022-07-25T00:59:53;16.80;99.90
26990;DHT22;14537;47.788;11.858;2022-07-25T01:02:18;16.80;99.90
26990;DHT22;14537;47.788;11.858;2022-07-25T01:04:44;16.70;99.90
26990;DHT22;14537;47.788;11.858;2022-07-25T01:07:10;16.70;99.90
26990;DHT22;14537;47.788;11.858;2022-07-25T01:09:35;16.70;99.90
26990;DHT22;14537;47.788;11.858;2022-07-25T01:12:01;16.70;99.90
26990;DHT22;14537;47.788;11.858;2022-07-25T01:14:26;16.60;99.90
26990;DHT22;14537;47.788;11.858;2022-07-25T01:16:52;16.50;99.90
26990;DHT22;14537;47.788;11.858;2022-07-25T01:19:18;16.50;99.90
26990;DHT22;14537;47.788;11.858;2022-07-25T01:21:43;16.50;99.90
26990;DHT22;14537;47.788;11.858;2022-07-25T01:24:09;16.50;99.90
26990;DHT22;14537;47.788;11.858;2022-07-25T01:26:35;16.50;99.90
26990;DHT22;14537;47.788;11.858;2022-07-25T01:29:00;16.50;99.90
26990;DHT22;14537;47.788;11.858;2022-07-25T01:31:26;16.40;99.90
26990;DHT22;14537;47.788;11.858;2022-07-25T01:33:51;16.40;99.90
26990;DHT22;14537;47.788;11.858;2022-07-25T01:36:17;16.40;99.90
26990;DHT22;14537;47.788;11.858;2022-07-25T01:38:43;16.30;99.90
26990;DHT22;14537;47.788;11.858;2022-07-25T01:41:08;16.20;99.90
26990;DHT22;14537;47.788;11.858;2022-07-25T01:43:34;16.20;99.90
26990;DHT22;14537;47.788;11.858;2022-07-25T01:45:59;16.20;99.90
26990;DHT22;14537;47.788;11.858;2022-07-25T01:48:25;16.20;99.90
26990;DHT22;14537;47.788;11.858;2022-07-25T01:50:50;16.10;99.90
26990;DHT22;14537;47.788;11.858;2022-07-25T01:53:16;16.10;99.90
26990;DHT22;14537;47.788;11.858;2022-07-25T01:55:43;16.10;99.90
26990;DHT22;14537;47.788;11.858;2022-07-25T01:58:08;16.10;99.90
26990;DHT22;14537;47.788;11.858;2022-07-25T02:00:34;16.10;99.90
26990;DHT22;14537;47.788;11.858;2022-07-25T02:03:00;16.10;99.90
26990;DHT22;14537;47.788;11.858;2022-07-25T02:05:44;16.10;99.90
26990;DHT22;14537;47.788;11.858;2022-07-25T02:08:09;16.00;99.90
26990;DHT22;14537;47.788;11.858;2022-07-25T02:10:35;16.10;99.90
26990;DHT22;14537;47.788;11.858;2022-07-25T02:13:00;16.10;99.90
26990;DHT22;14537;47.788;11.858;2022-07-25T02:15:26;16.00;99.90
26990;DHT22;14537;47.788;11.858;2022-07-25T02:17:52;16.00;99.90
26990;DHT22;14537;47.788;11.858;2022-07-25T02:20:17;15.90;99.90
26990;DHT22;14537;47.788;11.858;2022-07-25T02:22:43;15.90;99.90
26990;DHT22;14537;47.788;11.858;2022-07-25T02:25:08;15.90;99.90
26990;DHT22;14537;47.788;11.858;2022-07-25T02:27:34;16.00;99.90
26990;DHT22;14537;47.788;11.858;2022-07-25T02:29:59;15.90;99.90
26990;DHT22;14537;47.788;11.858;2022-07-25T02:32:25;16.00;99.90
26990;DHT22;14537;47.788;11.858;2022-07-25T02:34:50;16.00;99.90
26990;DHT22;14537;47.788;11.858;2022-07-25T02:37:17;15.90;99.90
26990;DHT22;14537;47.788;11.858;2022-07-25T02:39:42;15.90;99.90
26990;DHT22;14537;47.788;11.858;2022-07-25T02:42:08;15.90;99.90
26990;DHT22;14537;47.788;11.858;2022-07-25T02:44:33;15.70;99.90
26990;DHT22;14537;47.788;11.858;2022-07-25T02:46:59;15.70;99.90
26990;DHT22;14537;47.788;11.858;2022-07-25T02:49:24;15.60;99.90
26990;DHT22;14537;47.788;11.858;2022-07-25T02:51:50;15.60;99.90
26990;DHT22;14537;47.788;11.858;2022-07-25T02:54:15;15.60;99.90
26990;DHT22;14537;47.788;11.858;2022-07-25T02:56:41;15.60;99.90
26990;DHT22;14537;47.788;11.858;2022-07-25T02:59:06;15.60;99.90
26990;DHT22;14537;47.788;11.858;2022-07-25T03:01:32;15.60;99.90
26990;DHT22;14537;47.788;11.858;2022-07-25T03:03:57;15.60;99.90
26990;DHT22;14537;47.788;11.858;2022-07-25T03:06:23;15.70;99.90
26990;DHT22;14537;47.788;11.858;2022-07-25T03:08:49;15.60;99.90
26990;DHT22;14537;47.788;11.858;2022-07-25T03:11:14;15.60;99.90
26990;DHT22;14537;47.788;11.858;2022-07-25T03:13:41;15.60;99.90
26990;DHT22;14537;47.788;11.858;2022-07-25T03:16:06;15.70;99.90
26990;DHT22;14537;47.788;11.858;2022-07-25T03:18:32;15.70;99.90
26990;DHT22;14537;47.788;11.858;2022-07-25T03:20:58;15.60;99.90
26990;DHT22;14537;47.788;11.858;2022-07-25T03:23:23;15.70;99.90
26990;DHT22;14537;47.788;11.858;2022-07-25T03:25:51;15.60;99.90
26990;DHT22;14537;47.788;11.858;2022-07-25T03:28:16;15.50;99.90
26990;DHT22;14537;47.788;11.858;2022-07-25T03:30:42;15.60;99.90
26990;DHT22;14537;47.788;11.858;2022-07-25T03:33:08;15.50;99.90
26990;DHT22;14537;47.788;11.858;2022-07-25T03:35:35;15.40;99.90
26990;DHT22;14537;47.788;11.858;2022-07-25T03:38:01;15.40;99.90
26990;DHT22;14537;47.788;11.858;2022-07-25T03:40:27;15.40;99.90
26990;DHT22;14537;47.788;11.858;2022-07-25T03:42:52;15.40;99.90
26990;DHT22;14537;47.788;11.858;2022-07-25T03:45:18;15.30;99.90
26990;DHT22;14537;47.788;11.858;2022-07-25T03:47:43;15.30;99.90
26990;DHT22;14537;47.788;11.858;2022-07-25T03:50:09;15.40;99.90
26990;DHT22;14537;47.788;11.858;2022-07-25T03:52:35;15.40;99.90
26990;DHT22;14537;47.788;11.858;2022-07-25T03:55:03;15.40;99.90
26990;DHT22;14537;47.788;11.858;2022-07-25T03:57:29;15.40;99.90
26990;DHT22;14537;47.788;11.858;2022-07-25T03:59:54;15.40;99.90
26990;DHT22;14537;47.788;11.858;2022-07-25T04:02:20;15.40;99.90
26990;DHT22;14537;47.788;11.858;2022-07-25T04:04:45;15.40;99.90
26990;DHT22;14537;47.788;11.858;2022-07-25T04:07:11;15.40;99.90
26990;DHT22;14537;47.788;11.858;2022-07-25T04:09:36;15.50;99.90
26990;DHT22;14537;47.788;11.858;2022-07-25T04:12:02;15.50;99.90
26990;DHT22;14537;47.788;11.858;2022-07-25T04:14:28;15.60;99.90
26990;DHT22;14537;47.788;11.858;2022-07-25T04:16:53;15.60;99.90
26990;DHT22;14537;47.788;11.858;2022-07-25T04:19:19;15.70;99.90
26990;DHT22;14537;47.788;11.858;2022-07-25T04:21:44;15.70;99.90
26990;DHT22;14537;47.788;11.858;2022-07-25T04:24:10;15.70;99.90
26990;DHT22;14537;47.788;11.858;2022-07-25T04:26:35;15.80;99.90
26990;DHT22;14537;47.788;11.858;2022-07-25T04:29:01;15.80;99.90
26990;DHT22;14537;47.788;11.858;2022-07-25T04:31:28;15.80;99.90
26990;DHT22;14537;47.788;11.858;2022-07-25T04:33:53;15.80;99.90
26990;DHT22;14537;47.788;11.858;2022-07-25T04:36:19;15.90;99.90
26990;DHT22;14537;47.788;11.858;2022-07-25T04:38:44;15.90;99.90
26990;DHT22;14537;47.788;11.858;2022-07-25T04:41:10;15.90;99.90
26990;DHT22;14537;47.788;11.858;2022-07-25T04:43:35;16.00;99.90
26990;DHT22;14537;47.788;11.858;2022-07-25T04:46:01;16.00;99.90
26990;DHT22;14537;47.788;11.858;2022-07-25T04:48:27;16.10;99.90
26990;DHT22;14537;47.788;11.858;2022-07-25T04:50:52;16.10;99.90
26990;DHT22;14537;47.788;11.858;2022-07-25T04:53:18;16.20;99.90
26990;DHT22;14537;47.788;11.858;2022-07-25T04:55:43;16.20;99.90
26990;DHT22;14537;47.788;11.858;2022-07-25T04:58:09;16.30;99.90
26990;DHT22;14537;47.788;11.858;2022-07-25T05:00:35;16.40;99.90
26990;DHT22;14537;47.788;11.858;2022-07-25T05:03:00;16.40;99.90
26990;DHT22;14537;47.788;11.858;2022-07-25T05:05:26;16.50;99.90
26990;DHT22;14537;47.788;11.858;2022-07-25T05:07:55;16.60;99.90
26990;DHT22;14537;47.788;11.858;2022-07-25T05:10:21;16.60;99.90
26990;DHT22;14537;47.788;11.858;2022-07-25T05:12:47;16.70;99.90
26990;DHT22;14537;47.788;11.858;2022-07-25T05:15:12;16.80;99.90
26990;DHT22;14537;47.788;11.858;2022-07-25T05:17:38;16.80;99.90
26990;DHT22;14537;47.788;11.858;2022-07-25T05:20:03;16.90;99.90
26990;DHT22;14537;47.788;11.858;2022-07-25T05:22:29;17.00;99.90
26990;DHT22;14537;47.788;11.858;2022-07-25T05:24:55;17.10;99.90
26990;DHT22;14537;47.788;11.858;2022-07-25T05:27:20;17.20;99.90
26990;DHT22;14537;47.788;11.858;2022-07-25T05:29:46;17.20;99.90
26990;DHT22;14537;47.788;11.858;2022-07-25T05:32:11;17.30;99.90
26990;DHT22;14537;47.788;11.858;2022-07-25T05:34:37;17.40;99.90
26990;DHT22;14537;47.788;11.858;2022-07-25T05:37:02;17.40;99.90
26990;DHT22;14537;47.788;11.858;2022-07-25T05:39:28;17.50;99.90
26990;DHT22;14537;47.788;11.858;2022-07-25T05:41:53;17.50;99.90
26990;DHT22;14537;47.788;11.858;2022-07-25T05:44:19;17.60;99.90
26990;DHT22;14537;47.788;11.858;2022-07-25T05:46:44;17.80;99.90
26990;DHT22;14537;47.788;11.858;2022-07-25T05:49:10;17.90;99.90
26990;DHT22;14537;47.788;11.858;2022-07-25T05:51:36;18.00;99.90
26990;DHT22;14537;47.788;11.858;2022-07-25T05:54:02;18.10;99.90
26990;DHT22;14537;47.788;11.858;2022-07-25T05:56:27;18.10;99.90
26990;DHT22;14537;47.788;11.858;2022-07-25T05:58:54;18.20;99.90
26990;DHT22;14537;47.788;11.858;2022-07-25T06:01:19;18.20;99.90
26990;DHT22;14537;47.788;11.858;2022-07-25T06:03:45;18.30;99.90
26990;DHT22;14537;47.788;11.858;2022-07-25T06:06:11;18.40;99.90
26990;DHT22;14537;47.788;11.858;2022-07-25T06:08:37;18.50;99.90
26990;DHT22;14537;47.788;11.858;2022-07-25T06:11:03;18.60;99.90
26990;DHT22;14537;47.788;11.858;2022-07-25T06:13:29;18.70;99.90
26990;DHT22;14537;47.788;11.858;2022-07-25T06:15:55;18.80;99.90
26990;DHT22;14537;47.788;11.858;2022-07-25T06:18:20;18.90;99.90
26990;DHT22;14537;47.788;11.858;2022-07-25T06:20:46;19.00;99.90
26990;DHT22;14537;47.788;11.858;2022-07-25T06:23:13;19.10;99.90
26990;DHT22;14537;47.788;11.858;2022-07-25T06:25:38;19.20;99.90
26990;DHT22;14537;47.788;11.858;2022-07-25T06:28:04;19.30;99.90
26990;DHT22;14537;47.788;11.858;2022-07-25T06:30:29;19.40;99.90
26990;DHT22;14537;47.788;11.858;2022-07-25T06:32:55;19.40;99.90
26990;DHT22;14537;47.788;11.858;2022-07-25T06:35:20;19.60;99.90
26990;DHT22;14537;47.788;11.858;2022-07-25T06:37:46;19.70;99.90
26990;DHT22;14537;47.788;11.858;2022-07-25T06:40:13;19.80;99.90
26990;DHT22;14537;47.788;11.858;2022-07-25T06:42:40;19.80;99.90
26990;DHT22;14537;47.788;11.858;2022-07-25T06:45:07;19.90;99.90
26990;DHT22;14537;47.788;11.858;2022-07-25T06:47:34;20.00;99.90
26990;DHT22;14537;47.788;11.858;2022-07-25T06:49:59;20.10;99.90
26990;DHT22;14537;47.788;11.858;2022-07-25T06:52:25;20.20;99.90
26990;DHT22;14537;47.788;11.858;2022-07-25T06:54:50;20.30;99.90
26990;DHT22;14537;47.788;11.858;2022-07-25T06:57:16;20.30;99.90
26990;DHT22;14537;47.788;11.858;2022-07-25T06:59:42;20.40;99.90
26990;DHT22;14537;47.788;11.858;2022-07-25T07:02:09;20.50;99.90
26990;DHT22;14537;47.788;11.858;2022-07-25T07:04:34;20.60;99.90
26990;DHT22;14537;47.788;11.858;2022-07-25T07:07:00;20.70;99.90
26990;DHT22;14537;47.788;11.858;2022-07-25T07:09:25;20.80;99.90
26990;DHT22;14537;47.788;11.858;2022-07-25T07:11:51;20.80;99.90
26990;DHT22;14537;47.788;11.858;2022-07-25T07:14:16;20.80;99.90
26990;DHT22;14537;47.788;11.858;2022-07-25T07:16:42;20.90;99.90
26990;DHT22;14537;47.788;11.858;2022-07-25T07:19:07;21.00;99.90
26990;DHT22;14537;47.788;11.858;2022-07-25T07:21:35;21.00;99.90
26990;DHT22;14537;47.788;11.858;2022-07-25T07:24:01;21.10;99.90
26990;DHT22;14537;47.788;11.858;2022-07-25T07:26:26;21.20;99.90
26990;DHT22;14537;47.788;11.858;2022-07-25T07:28:52;21.30;99.90
26990;DHT22;14537;47.788;11.858;2022-07-25T07:31:19;21.40;99.90
26990;DHT22;14537;47.788;11.858;2022-07-25T07:33:44;21.40;99.90
26990;DHT22;14537;47.788;11.858;2022-07-25T07:36:10;21.60;99.90
26990;DHT22;14537;47.788;11.858;2022-07-25T07:38:36;21.70;99.90
26990;DHT22;14537;47.788;11.858;2022-07-25T07:41:01;21.70;99.90
26990;DHT22;14537;47.788;11.858;2022-07-25T07:43:27;21.90;99.90
26990;DHT22;14537;47.788;11.858;2022-07-25T07:45:56;22.00;99.90
26990;DHT22;14537;47.788;11.858;2022-07-25T07:48:25;22.10;99.90
26990;DHT22;14537;47.788;11.858;2022-07-25T07:50:50;22.20;99.90
26990;DHT22;14537;47.788;11.858;2022-07-25T07:53:16;22.30;99.90
26990;DHT22;14537;47.788;11.858;2022-07-25T07:55:41;22.30;99.90
26990;DHT22;14537;47.788;11.858;2022-07-25T07:58:16;22.40;99.90
26990;DHT22;14537;47.788;11.858;2022-07-25T08:00:42;22.50;99.90
26990;DHT22;14537;47.788;11.858;2022-07-25T08:03:08;22.60;99.90
26990;DHT22;14537;47.788;11.858;2022-07-25T08:05:38;22.70;99.90
26990;DHT22;14537;47.788;11.858;2022-07-25T08:08:04;22.80;99.90
26990;DHT22;14537;47.788;11.858;2022-07-25T08:10:31;23.20;99.90
26990;DHT22;14537;47.788;11.858;2022-07-25T08:12:57;23.30;99.90
26990;DHT22;14537;47.788;11.858;2022-07-25T08:15:23;23.40;99.90
26990;DHT22;14537;47.788;11.858;2022-07-25T08:17:49;23.70;99.90
26990;DHT22;14537;47.788;11.858;2022-07-25T08:20:18;23.90;99.90
26990;DHT22;14537;47.788;11.858;2022-07-25T08:22:45;23.80;99.90
26990;DHT22;14537;47.788;11.858;2022-07-25T08:25:15;24.00;99.90
26990;DHT22;14537;47.788;11.858;2022-07-25T08:27:41;24.20;99.90
26990;DHT22;14537;47.788;11.858;2022-07-25T08:30:07;24.70;99.90
26990;DHT22;14537;47.788;11.858;2022-07-25T08:32:33;24.90;99.90
26990;DHT22;14537;47.788;11.858;2022-07-25T08:34:59;25.00;99.90
26990;DHT22;14537;47.788;11.858;2022-07-25T08:37:26;25.30;99.90
26990;DHT22;14537;47.788;11.858;2022-07-25T08:39:52;25.30;99.90
26990;DHT22;14537;47.788;11.858;2022-07-25T08:42:18;25.30;99.90
26990;DHT22;14537;47.788;11.858;2022-07-25T08:44:47;25.40;99.90
26990;DHT22;14537;47.788;11.858;2022-07-25T08:47:13;25.50;99.90
26990;DHT22;14537;47.788;11.858;2022-07-25T08:49:40;25.50;99.90
26990;DHT22;14537;47.788;11.858;2022-07-25T08:52:06;25.50;99.90
26990;DHT22;14537;47.788;11.858;2022-07-25T08:54:32;25.50;99.90
26990;DHT22;14537;47.788;11.858;2022-07-25T08:56:59;25.60;99.90
26990;DHT22;14537;47.788;11.858;2022-07-25T08:59:24;25.70;99.90
26990;DHT22;14537;47.788;11.858;2022-07-25T09:01:50;25.90;99.90
26990;DHT22;14537;47.788;11.858;2022-07-25T09:04:15;26.10;99.90
26990;DHT22;14537;47.788;11.858;2022-07-25T09:06:48;26.20;99.90
26990;DHT22;14537;47.788;11.858;2022-07-25T09:09:13;26.30;99.60
26990;DHT22;14537;47.788;11.858;2022-07-25T09:11:39;26.50;99.40
26990;DHT22;14537;47.788;11.858;2022-07-25T09:14:05;26.80;99.20
26990;DHT22;14537;47.788;11.858;2022-07-25T09:16:32;26.70;98.50
26990;DHT22;14537;47.788;11.858;2022-07-25T09:19:05;26.70;98.00
26990;DHT22;14537;47.788;11.858;2022-07-25T09:21:30;27.00;94.70
26990;DHT22;14537;47.788;11.858;2022-07-25T09:23:56;27.10;95.30
26990;DHT22;14537;47.788;11.858;2022-07-25T09:26:41;27.20;94.50
26990;DHT22;14537;47.788;11.858;2022-07-25T09:29:06;27.40;92.30
26990;DHT22;14537;47.788;11.858;2022-07-25T09:31:32;27.40;92.40
26990;DHT22;14537;47.788;11.858;2022-07-25T09:33:59;27.50;92.70
26990;DHT22;14537;47.788;11.858;2022-07-25T09:36:25;27.60;90.60
26990;DHT22;14537;47.788;11.858;2022-07-25T09:38:58;27.80;90.30
26990;DHT22;14537;47.788;11.858;2022-07-25T09:41:39;27.80;90.60
26990;DHT22;14537;47.788;11.858;2022-07-25T09:44:15;27.80;86.90
26990;DHT22;14537;47.788;11.858;2022-07-25T09:46:41;27.90;90.20
26990;DHT22;14537;47.788;11.858;2022-07-25T09:49:07;28.00;89.60
26990;DHT22;14537;47.788;11.858;2022-07-25T09:51:34;28.00;89.50
26990;DHT22;14537;47.788;11.858;2022-07-25T09:54:01;28.10;91.40
26990;DHT22;14537;47.788;11.858;2022-07-25T09:56:27;28.30;88.70
26990;DHT22;14537;47.788;11.858;2022-07-25T09:58:52;28.10;88.70
26990;DHT22;14537;47.788;11.858;2022-07-25T10:01:19;28.00;83.80
26990;DHT22;14537;47.788;11.858;2022-07-25T10:08:47;28.20;85.20
26990;DHT22;14537;47.788;11.858;2022-07-25T10:11:20;28.30;85.80
26990;DHT22;14537;47.788;11.858;2022-07-25T10:13:45;28.30;88.40
26990;DHT22;14537;47.788;11.858;2022-07-25T10:16:15;28.30;85.60
26990;DHT22;14537;47.788;11.858;2022-07-25T10:18:52;28.30;84.60
26990;DHT22;14537;47.788;11.858;2022-07-25T10:21:18;28.40;84.80
26990;DHT22;14537;47.788;11.858;2022-07-25T10:23:56;28.70;85.40
26990;DHT22;14537;47.788;11.858;2022-07-25T10:26:21;28.80;83.20
26990;DHT22;14537;47.788;11.858;2022-07-25T10:28:48;28.80;82.80
26990;DHT22;14537;47.788;11.858;2022-07-25T10:33:40;28.80;84.10
26990;DHT22;14537;47.788;11.858;2022-07-25T10:36:05;28.80;83.30
26990;DHT22;14537;47.788;11.858;2022-07-25T10:38:32;28.80;81.60
26990;DHT22;14537;47.788;11.858;2022-07-25T10:40:59;28.90;84.10
26990;DHT22;14537;47.788;11.858;2022-07-25T10:43:28;29.00;80.00
26990;DHT22;14537;47.788;11.858;2022-07-25T10:45:55;28.90;84.10
26990;DHT22;14537;47.788;11.858;2022-07-25T10:48:31;28.80;80.10
26990;DHT22;14537;47.788;11.858;2022-07-25T10:56:04;28.90;81.30
26990;DHT22;14537;47.788;11.858;2022-07-25T11:01:18;29.00;78.20
26990;DHT22;14537;47.788;11.858;2022-07-25T11:03:43;29.00;81.00
26990;DHT22;14537;47.788;11.858;2022-07-25T11:06:10;28.90;80.30
26990;DHT22;14537;47.788;11.858;2022-07-25T11:08:35;29.00;81.10
26990;DHT22;14537;47.788;11.858;2022-07-25T11:11:01;29.20;79.10
26990;DHT22;14537;47.788;11.858;2022-07-25T11:13:27;29.20;77.60
26990;DHT22;14537;47.788;11.858;2022-07-25T11:15:56;29.20;77.00
26990;DHT22;14537;47.788;11.858;2022-07-25T11:18:35;29.30;74.30
26990;DHT22;14537;47.788;11.858;2022-07-25T11:21:02;29.40;76.00
26990;DHT22;14537;47.788;11.858;2022-07-25T11:23:27;29.70;68.10
26990;DHT22;14537;47.788;11.858;2022-07-25T11:26:06;29.90;65.20
26990;DHT22;14537;47.788;11.858;2022-07-25T11:28:36;30.10;67.90
26990;DHT22;14537;47.788;11.858;2022-07-25T11:31:05;30.10;69.60
26990;DHT22;14537;47.788;11.858;2022-07-25T11:33:31;30.10;65.30
26990;DHT22;14537;47.788;11.858;2022-07-25T11:35:57;30.20;64.30
26990;DHT22;14537;47.788;11.858;2022-07-25T11:38:24;30.10;62.90
26990;DHT22;14537;47.788;11.858;2022-07-25T11:40:49;30.10;62.90
26990;DHT22;14537;47.788;11.858;2022-07-25T11:43:22;30.20;62.50
26990;DHT22;14537;47.788;11.858;2022-07-25T11:46:01;30.30;59.80
26990;DHT22;14537;47.788;11.858;2022-07-25T11:48:31;30.30;61.70
26990;DHT22;14537;47.788;11.858;2022-07-25T11:51:07;30.40;61.20
26990;DHT22;14537;47.788;11.858;2022-07-25T11:53:37;30.50;59.10
26990;DHT22;14537;47.788;11.858;2022-07-25T11:58:56;30.50;58.20
26990;DHT22;14537;47.788;11.858;2022-07-25T12:01:22;30.60;59.70
26990;DHT22;14537;47.788;11.858;2022-07-25T12:03:49;30.60;63.90
26990;DHT22;14537;47.788;11.858;2022-07-25T12:06:14;30.70;64.60
26990;DHT22;14537;47.788;11.858;2022-07-25T12:08:40;30.80;59.20
26990;DHT22;14537;47.788;11.858;2022-07-25T12:11:20;30.90;57.50
26990;DHT22;14537;47.788;11.858;2022-07-25T12:13:45;31.00;58.70
26990;DHT22;14537;47.788;11.858;2022-07-25T12:16:11;31.00;55.80
26990;DHT22;14537;47.788;11.858;2022-07-25T12:18:37;31.10;59.40
26990;DHT22;14537;47.788;11.858;2022-07-25T12:21:03;31.20;57.80
26990;DHT22;14537;47.788;11.858;2022-07-25T12:23:28;31.20;55.40
26990;DHT22;14537;47.788;11.858;2022-07-25T12:25:54;31.30;56.20
26990;DHT22;14537;47.788;11.858;2022-07-25T12:28:21;31.30;56.20
26990;DHT22;14537;47.788;11.858;2022-07-25T12:30:46;31.40;55.30
26990;DHT22;14537;47.788;11.858;2022-07-25T12:33:12;31.50;56.30
26990;DHT22;14537;47.788;11.858;2022-07-25T12:35:39;31.30;61.70
26990;DHT22;14537;47.788;11.858;2022-07-25T12:38:13;30.50;69.90
26990;DHT22;14537;47.788;11.858;2022-07-25T12:40:39;30.10;66.70
26990;DHT22;14537;47.788;11.858;2022-07-25T12:43:04;30.00;63.40
26990;DHT22;14537;47.788;11.858;2022-07-25T12:45:30;30.20;61.00
26990;DHT22;14537;47.788;11.858;2022-07-25T12:47:56;30.30;58.30
26990;DHT22;14537;47.788;11.858;2022-07-25T12:50:21;30.30;57.30
26990;DHT22;14537;47.788;11.858;2022-07-25T12:52:50;30.40;57.20
26990;DHT22;14537;47.788;11.858;2022-07-25T12:55:17;30.40;58.80
26990;DHT22;14537;47.788;11.858;2022-07-25T12:57:43;30.50;58.00
26990;DHT22;14537;47.788;11.858;2022-07-25T13:00:10;30.90;57.00
26990;DHT22;14537;47.788;11.858;2022-07-25T13:02:37;31.30;57.20
26990;DHT22;14537;47.788;11.858;2022-07-25T13:05:03;31.10;54.60
26990;DHT22;14537;47.788;11.858;2022-07-25T13:07:28;31.10;57.40
26990;DHT22;14537;47.788;11.858;2022-07-25T13:09:54;31.40;55.40
26990;DHT22;14537;47.788;11.858;2022-07-25T13:12:20;31.30;54.60
26990;DHT22;14537;47.788;11.858;2022-07-25T13:14:47;31.20;53.90
26990;DHT22;14537;47.788;11.858;2022-07-25T13:17:12;31.40;55.50
26990;DHT22;14537;47.788;11.858;2022-07-25T13:19:38;31.50;54.50
26990;DHT22;14537;47.788;11.858;2022-07-25T13:22:03;31.70;53.70
26990;DHT22;14537;47.788;11.858;2022-07-25T13:24:30;32.00;53.90
26990;DHT22;14537;47.788;11.858;2022-07-25T13:26:55;31.90;54.40
26990;DHT22;14537;47.788;11.858;2022-07-25T13:29:21;31.90;53.90
26990;DHT22;14537;47.788;11.858;2022-07-25T13:31:46;32.20;55.50
26990;DHT22;14537;47.788;11.858;2022-07-25T13:34:12;31.90;52.60
26990;DHT22;14537;47.788;11.858;2022-07-25T13:36:37;32.00;53.20
26990;DHT22;14537;47.788;11.858;2022-07-25T13:39:04;32.10;55.70
26990;DHT22;14537;47.788;11.858;2022-07-25T13:41:29;32.70;55.90
26990;DHT22;14537;47.788;11.858;2022-07-25T13:43:55;32.50;51.40
26990;DHT22;14537;47.788;11.858;2022-07-25T13:46:20;32.40;52.20
26990;DHT22;14537;47.788;11.858;2022-07-25T13:48:46;32.50;50.70
26990;DHT22;14537;47.788;11.858;2022-07-25T13:51:12;32.60;52.70
26990;DHT22;14537;47.788;11.858;2022-07-25T13:53:37;32.70;51.90
26990;DHT22;14537;47.788;11.858;2022-07-25T13:56:03;32.60;51.10
26990;DHT22;14537;47.788;11.858;2022-07-25T13:58:28;32.70;51.50
26990;DHT22;14537;47.788;11.858;2022-07-25T14:00:54;32.90;51.50
26990;DHT22;14537;47.788;11.858;2022-07-25T14:03:19;32.70;51.50
26990;DHT22;14537;47.788;11.858;2022-07-25T14:05:45;33.00;51.60
26990;DHT22;14537;47.788;11.858;2022-07-25T14:08:11;33.40;50.30
26990;DHT22;14537;47.788;11.858;2022-07-25T14:10:36;33.30;49.80
26990;DHT22;14537;47.788;11.858;2022-07-25T14:13:02;33.20;50.00
26990;DHT22;14537;47.788;11.858;2022-07-25T14:15:28;33.40;48.00
26990;DHT22;14537;47.788;11.858;2022-07-25T14:17:53;33.20;50.00
26990;DHT22;14537;47.788;11.858;2022-07-25T14:20:19;33.30;49.80
26990;DHT22;14537;47.788;11.858;2022-07-25T14:22:45;33.70;49.90
26990;DHT22;14537;47.788;11.858;2022-07-25T14:25:10;34.00;49.40
26990;DHT22;14537;47.788;11.858;2022-07-25T14:27:36;34.20;50.10
26990;DHT22;14537;47.788;11.858;2022-07-25T14:30:02;34.40;48.60
26990;DHT22;14537;47.788;11.858;2022-07-25T14:32:28;34.00;46.50
26990;DHT22;14537;47.788;11.858;2022-07-25T14:34:54;34.00;51.00
26990;DHT22;14537;47.788;11.858;2022-07-25T14:37:19;34.70;49.30
26990;DHT22;14537;47.788;11.858;2022-07-25T14:39:45;34.90;51.00
26990;DHT22;14537;47.788;11.858;2022-07-25T14:42:11;34.40;47.10
26990;DHT22;14537;47.788;11.858;2022-07-25T14:44:37;34.70;49.50
26990;DHT22;14537;47.788;11.858;2022-07-25T14:47:04;35.20;47.50
26990;DHT22;14537;47.788;11.858;2022-07-25T14:49:30;35.00;45.60
26990;DHT22;14537;47.788;11.858;2022-07-25T14:51:56;34.80;46.40
26990;DHT22;14537;47.788;11.858;2022-07-25T14:54:21;34.70;46.80
26990;DHT22;14537;47.788;11.858;2022-07-25T14:56:47;34.80;47.60
26990;DHT22;14537;47.788;11.858;2022-07-25T14:59:12;34.80;46.40
26990;DHT22;14537;47.788;11.858;2022-07-25T15:01:38;34.50;46.60
26990;DHT22;14537;47.788;11.858;2022-07-25T15:04:04;34.70;46.10
26990;DHT22;14537;47.788;11.858;2022-07-25T15:06:29;35.00;47.20
26990;DHT22;14537;47.788;11.858;2022-07-25T15:08:57;35.50;46.30
26990;DHT22;14537;47.788;11.858;2022-07-25T15:11:23;35.30;46.40
26990;DHT22;14537;47.788;11.858;2022-07-25T15:13:49;35.80;46.20
26990;DHT22;14537;47.788;11.858;2022-07-25T15:16:15;35.90;43.90
26990;DHT22;14537;47.788;11.858;2022-07-25T15:18:41;35.40;44.50
26990;DHT22;14537;47.788;11.858;2022-07-25T15:21:08;35.30;44.70
26990;DHT22;14537;47.788;11.858;2022-07-25T15:23:37;35.20;45.80
26990;DHT22;14537;47.788;11.858;2022-07-25T15:26:03;35.80;44.80
26990;DHT22;14537;47.788;11.858;2022-07-25T15:28:35;36.00;43.20